Time;durP1;ratioP1;P1;durP2;ratioP2;P2;SDS_P1;SDS_P2;PMS_P1;PMS_P2;Temp;Humidity;BMP_temperature;BMP_pressure;BME280_temperature;BME280_humidity;BME280_pressure;Samples;Min_cycle;Max_cycle;Signal;HPM_P1;HPM_P2
2022/08/20 00:02:00;;;;;;;35.50;12.68;;;;;;;31.13;66.04;97680.06;5025261;28;20048;-70
2022/08/20 00:04:50;;;;;;;33.42;12.70;;;;;;;30.99;66.50;97679.88;5007268;28;20726;-70
2022/08/20 00:07:39;;;;;;;43.08;12.65;;;;;;;31.04;66.12;97687.88;4989659;28;20045;-70
2022/08/20 00:10:22;;;;;;;35.53;13.25;;;;;;;30.99;66.19;97686.22;5019194;28;20041;-70
2022/08/20 00:13:20;;;;;;;29.63;11.50;;;;;;;31.05;66.62;97683.94;5020285;28;20058;-70
2022/08/20 00:15:57;;;;;;;31.13;11.68;;;;;;;31.18;66.08;97684.47;5007171;28;20144;-70
2022/08/20 00:18:53;;;;;;;31.23;12.40;;;;;;;31.10;65.96;97691.91;5006492;28;20038;-70
2022/08/20 00:21:28;;;;;;;37.80;12.85;;;;;;;31.05;65.74;97689.47;4988576;28;20393;-70
2022/08/20 00:24:23;;;;;;;26.45;11.48;;;;;;;31.03;65.35;97695.38;4992792;28;20511;-70
2022/08/20 00:27:12;;;;;;;29.25;11.65;;;;;;;31.02;65.87;97704.84;5005836;28;20154;-70
2022/08/20 00:30:01;;;;;;;32.75;13.07;;;;;;;31.05;65.37;97700.56;5006644;28;20042;-70
2022/08/20 00:32:49;;;;;;;31.60;12.60;;;;;;;31.15;66.04;97708.22;5017314;28;20046;-70
2022/08/20 00:35:43;;;;;;;30.25;12.60;;;;;;;31.06;65.95;97706.88;5026393;28;20053;-70
2022/08/20 00:38:25;;;;;;;31.63;14.70;;;;;;;31.15;65.79;97715.72;5024100;28;20049;-70
2022/08/20 00:41:21;;;;;;;43.70;16.33;;;;;;;31.31;65.10;97716.31;5006006;28;20046;-70
2022/08/20 00:44:11;;;;;;;39.28;15.60;;;;;;;31.18;65.04;97724.09;5006517;28;20414;-71
2022/08/20 00:47:00;;;;;;;30.80;11.57;;;;;;;31.19;65.15;97722.91;5005712;28;20049;-70
2022/08/20 00:49:44;;;;;;;34.38;10.40;;;;;;;31.18;65.42;97731.59;5005575;28;20041;-70
2022/08/20 00:52:32;;;;;;;25.45;9.32;;;;;;;31.21;64.87;97730.84;5005623;28;20061;-70
2022/08/20 00:55:18;;;;;;;25.00;8.30;;;;;;;31.30;65.35;97731.38;5005814;28;20041;-70
2022/08/20 00:58:13;;;;;;;20.80;6.78;;;;;;;31.16;65.32;97733.94;5005971;28;20292;-70
2022/08/20 01:00:56;;;;;;;21.95;7.50;;;;;;;31.41;64.76;97740.63;5006983;28;20050;-70
2022/08/20 01:03:45;;;;;;;22.90;7.57;;;;;;;31.39;65.40;97739.41;5007235;28;20064;-70
2022/08/20 01:06:28;;;;;;;22.23;7.13;;;;;;;31.40;65.43;97739.03;5006104;28;20065;-70
2022/08/20 01:09:17;;;;;;;20.60;7.43;;;;;;;31.34;65.87;97745.28;5005031;28;20120;-70
2022/08/20 01:12:22;;;;;;;19.38;5.78;;;;;;;31.53;64.80;97741.59;5005229;28;20065;-70
2022/08/20 01:15:16;;;;;;;21.15;7.53;;;;;;;31.09;66.02;97744.91;5021127;28;20045;-70
2022/08/20 01:18:00;;;;;;;20.15;6.53;;;;;;;31.37;64.54;97748.09;5025470;28;20489;-70
2022/08/20 01:20:53;;;;;;;24.63;6.78;;;;;;;31.32;65.02;97742.06;5008166;28;20745;-70
2022/08/20 01:23:44;;;;;;;24.05;7.05;;;;;;;31.44;64.76;97755.72;5025830;28;20511;-70
2022/08/20 01:26:48;;;;;;;22.33;5.93;;;;;;;31.59;64.61;97754.75;5025654;28;20045;-70
2022/08/20 01:29:38;;;;;;;19.77;5.72;;;;;;;31.66;64.41;97754.03;5025044;28;20103;-69
2022/08/20 01:32:27;;;;;;;18.50;6.07;;;;;;;31.61;64.32;97755.16;4995157;28;20049;-70
2022/08/20 01:35:10;;;;;;;18.10;6.03;;;;;;;31.49;64.69;97758.19;5025552;28;20059;-70
2022/08/20 01:37:58;;;;;;;16.00;5.88;;;;;;;31.56;64.56;97763.03;5025714;28;20041;-71
2022/08/20 01:41:09;;;;;;;20.85;6.18;;;;;;;31.76;64.10;97767.25;5007330;28;20104;-70
2022/08/20 01:43:55;;;;;;;17.92;5.45;;;;;;;31.79;64.35;97772.00;5005594;28;20046;-70
2022/08/20 01:46:58;;;;;;;23.42;5.85;;;;;;;31.74;63.39;97774.34;5005465;28;20057;-70
2022/08/20 01:49:35;;;;;;;21.50;6.63;;;;;;;31.59;63.38;97776.94;5005370;28;20781;-70
2022/08/20 01:52:37;;;;;;;19.92;5.63;;;;;;;31.64;63.62;97780.56;4987997;28;20053;-70
2022/08/20 01:55:20;;;;;;;18.48;7.05;;;;;;;31.80;63.13;97783.94;4987895;28;20136;-70
2022/08/20 01:58:10;;;;;;;21.67;6.90;;;;;;;31.90;63.11;97786.03;5004891;28;20042;-70
2022/08/20 02:00:59;;;;;;;31.73;6.80;;;;;;;31.67;63.47;97797.25;5024889;28;20409;-70
2022/08/20 02:03:41;;;;;;;19.08;6.93;;;;;;;31.72;63.51;97796.91;5024903;28;20481;-70
2022/08/20 02:06:32;;;;;;;17.02;5.68;;;;;;;32.00;63.95;97798.41;5025093;28;20511;-70
2022/08/20 02:09:14;;;;;;;18.00;7.15;;;;;;;31.92;63.11;97802.31;5021054;28;20048;-70
2022/08/20 02:12:04;;;;;;;26.60;5.57;;;;;;;32.00;62.66;97810.31;4973694;28;20038;-71
2022/08/20 02:14:52;;;;;;;16.27;6.57;;;;;;;32.00;62.73;97815.06;5012418;28;20042;-70
2022/08/20 02:17:41;;;;;;;24.27;6.70;;;;;;;31.96;62.78;97811.47;5005169;28;20049;-70
2022/08/20 02:20:28;;;;;;;15.65;5.85;;;;;;;32.07;62.03;97826.28;5005002;28;20056;-70
2022/08/20 02:23:23;;;;;;;26.10;6.15;;;;;;;32.36;61.80;97819.06;5007451;28;20050;-70
2022/08/20 02:26:18;;;;;;;21.15;6.05;;;;;;;32.97;59.79;97827.19;5006168;28;20042;-71
2022/08/20 02:29:11;;;;;;;19.58;6.35;;;;;;;32.38;60.73;97832.56;5001062;28;20041;-70
2022/08/20 02:31:54;;;;;;;17.25;5.68;;;;;;;32.81;59.84;97833.03;4988880;28;20442;-70
2022/08/20 02:35:07;;;;;;;21.48;6.20;;;;;;;33.29;59.68;97841.38;5011373;28;20037;-70
2022/08/20 02:37:51;;;;;;;16.10;5.57;;;;;;;33.54;58.57;97837.94;5012173;28;20155;-70
2022/08/20 02:40:43;;;;;;;14.75;4.40;;;;;;;33.59;57.43;97840.34;5025254;28;20045;-71
2022/08/20 02:43:25;;;;;;;19.20;6.55;;;;;;;33.80;57.08;97844.44;4992289;28;20038;-70
2022/08/20 02:46:21;;;;;;;20.75;5.07;;;;;;;33.22;58.21;97854.41;5008030;28;20473;-70
2022/08/20 02:48:57;;;;;;;18.88;4.95;;;;;;;33.23;58.17;97856.81;4992910;28;20045;-70
2022/08/20 02:51:54;;;;;;;12.85;4.78;;;;;;;33.22;58.58;97849.66;5008235;28;20042;-70
2022/08/20 02:54:29;;;;;;;17.58;5.30;;;;;;;33.14;58.77;97853.56;5008079;28;20052;-70
2022/08/20 02:57:25;;;;;;;21.42;5.05;;;;;;;33.16;59.03;97854.78;5008109;28;20058;-70
2022/08/20 03:00:02;;;;;;;20.73;5.50;;;;;;;33.29;58.54;97855.28;5008518;28;20127;-70
2022/08/20 03:02:58;;;;;;;18.48;5.32;;;;;;;33.27;58.37;97852.06;5008023;28;20056;-70
2022/08/20 03:05:33;;;;;;;16.60;5.20;;;;;;;32.95;59.77;97862.91;5008595;28;20052;-70
2022/08/20 03:08:24;;;;;;;17.88;5.15;;;;;;;32.91;59.96;97876.78;5008730;28;20060;-70
2022/08/20 03:11:13;;;;;;;15.57;5.20;;;;;;;33.08;58.87;97872.56;5008113;28;20042;-71
2022/08/20 03:13:55;;;;;;;15.32;4.95;;;;;;;33.22;59.69;97876.66;4997362;28;20045;-70
2022/08/20 03:16:44;;;;;;;19.55;5.32;;;;;;;33.05;59.23;97878.09;5027364;28;20042;-70
2022/08/20 03:19:27;;;;;;;17.73;4.63;;;;;;;33.07;59.42;97878.50;5027623;28;20052;-70
2022/08/20 03:22:15;;;;;;;16.65;4.60;;;;;;;33.28;59.55;97887.03;5009689;28;20041;-71
2022/08/20 03:25:12;;;;;;;19.10;6.07;;;;;;;33.58;58.84;97886.06;5028957;28;20076;-71
2022/08/20 03:28:01;;;;;;;21.92;4.30;;;;;;;33.48;58.34;97895.13;5027743;28;20068;-71
2022/08/20 03:30:52;;;;;;;17.40;4.72;;;;;;;33.24;59.05;97889.00;5009010;28;20069;-71
2022/08/20 03:33:34;;;;;;;18.48;5.25;;;;;;;33.16;58.89;97890.13;5022446;28;20042;-71
2022/08/20 03:36:33;;;;;;;15.82;4.28;;;;;;;33.32;58.20;97885.06;5008415;28;20095;-70
2022/08/20 03:39:15;;;;;;;19.08;5.70;;;;;;;33.64;57.75;97890.09;5022232;28;20038;-71
2022/08/20 03:42:04;;;;;;;17.88;4.85;;;;;;;33.55;57.71;97890.41;4990513;28;20625;-70
2022/08/20 03:44:47;;;;;;;12.52;4.72;;;;;;;33.57;57.63;97887.22;5007165;28;20054;-70
2022/08/20 03:47:38;;;;;;;15.48;4.32;;;;;;;33.52;57.17;97898.75;5007624;28;20038;-71
2022/08/20 03:50:24;;;;;;;14.23;5.38;;;;;;;33.49;58.18;97894.72;5006729;28;20050;-70
2022/08/20 03:53:12;;;;;;;13.68;4.43;;;;;;;33.78;57.47;97896.94;5006856;28;20050;-70
2022/08/20 03:56:05;;;;;;;15.43;4.28;;;;;;;33.90;56.61;97889.06;5009655;28;20042;-70
2022/08/20 03:58:53;;;;;;;15.82;5.38;;;;;;;33.92;57.32;97889.47;5007126;28;20053;-70
2022/08/20 04:01:48;;;;;;;12.10;3.78;;;;;;;33.81;56.05;97907.28;4991241;28;20143;-70
2022/08/20 04:04:24;;;;;;;13.30;4.55;;;;;;;34.16;55.97;97900.31;5006861;28;20108;-70
2022/08/20 04:07:24;;;;;;;;;;;;;;;34.19;55.14;97902.34;5007340;28;20052;-69
2022/08/20 04:10:05;;;;;;;16.63;5.18;;;;;;;34.47;54.96;97894.09;5017999;28;19948;-70
2022/08/20 04:12:59;;;;;;;19.45;4.13;;;;;;;34.62;54.87;97894.88;5022920;28;20524;-70
2022/08/20 04:15:36;;;;;;;16.85;4.95;;;;;;;34.99;52.61;97891.00;5025667;28;20045;-70
2022/08/20 04:18:33;;;;;;;15.02;3.85;;;;;;;35.04;52.76;97892.59;5026182;28;20041;-69
2022/08/20 04:21:08;;;;;;;14.70;4.15;;;;;;;35.14;53.05;97889.03;5025408;28;20079;-69
2022/08/20 04:23:59;;;;;;;13.70;4.20;;;;;;;35.43;51.86;97895.41;5009401;28;20180;-70
2022/08/20 04:26:42;;;;;;;19.02;4.05;;;;;;;35.24;53.43;97893.81;5026843;28;20492;-70
2022/08/20 04:29:32;;;;;;;23.52;4.53;;;;;;;35.05;52.48;97894.19;5026091;28;20857;-71
2022/08/20 04:32:20;;;;;;;16.02;3.88;;;;;;;35.54;50.91;97892.63;5025801;28;20073;-71
2022/08/20 04:35:07;;;;;;;17.00;5.22;;;;;;;35.84;51.63;97888.56;5010676;28;20060;-70
2022/08/20 04:38:06;;;;;;;18.25;3.55;;;;;;;35.76;51.06;97893.38;5008934;28;20368;-70
2022/08/20 04:40:52;;;;;;;14.57;3.90;;;;;;;36.15;50.77;97894.44;5008214;28;20050;-70
2022/08/20 04:43:42;;;;;;;13.20;3.63;;;;;;;35.77;50.55;97896.97;4989663;28;20045;-70
2022/08/20 04:46:27;;;;;;;19.10;4.22;;;;;;;36.00;49.68;97891.72;5015254;28;20065;-71
2022/08/20 04:49:16;;;;;;;14.45;3.63;;;;;;;35.93;51.06;97902.91;5022614;28;20115;-70
2022/08/20 04:51:58;;;;;;;15.00;3.80;;;;;;;36.22;49.57;97902.84;5015521;28;20108;-70
2022/08/20 04:54:46;;;;;;;17.42;4.32;;;;;;;36.79;49.34;97902.53;5025807;28;20049;-69
2022/08/20 04:57:28;;;;;;;10.80;3.78;;;;;;;37.00;48.79;97900.81;5025039;28;20053;-71
2022/08/20 05:00:21;;;;;;;23.52;5.05;;;;;;;36.91;49.26;97898.47;5025652;28;20489;-69
2022/08/20 05:03:07;;;;;;;17.90;4.43;;;;;;;36.85;46.15;97900.13;5008591;28;20384;-70
2022/08/20 05:05:56;;;;;;;14.50;3.70;;;;;;;36.76;50.00;97906.16;5026091;28;20056;-70
2022/08/20 05:08:39;;;;;;;10.80;3.40;;;;;;;37.25;47.66;97908.25;5025982;28;20052;-70
2022/08/20 05:11:29;;;;;;;17.85;4.63;;;;;;;36.55;49.29;97904.25;5005712;28;20101;-70
2022/08/20 05:14:16;;;;;;;21.73;4.20;;;;;;;36.11;50.88;97913.22;5013781;28;20061;-70
2022/08/20 05:17:13;;;;;;;13.25;3.83;;;;;;;36.09;49.21;97910.03;5007628;28;20037;-70
2022/08/20 05:20:08;;;;;;;15.55;4.40;;;;;;;36.11;51.97;97911.22;5005817;28;20052;-70
2022/08/20 05:22:58;;;;;;;;;;;;;;;36.77;49.46;97910.56;5006232;28;20108;-69
2022/08/20 05:25:41;;;;;;;13.07;4.07;;;;;;;36.28;46.92;97922.75;5009105;28;20249;-70
2022/08/20 05:28:32;;;;;;;14.65;3.90;;;;;;;36.94;47.88;97908.06;4960067;28;20053;-70
2022/08/20 05:31:32;;;;;;;27.20;4.38;;;;;;;36.79;49.20;97912.94;5005628;28;20060;-70
2022/08/20 05:34:20;;;;;;;12.32;4.60;;;;;;;35.84;49.99;97908.13;4990357;28;20398;-70
2022/08/20 05:37:03;;;;;;;22.13;5.30;;;;;;;36.39;49.56;97912.34;5006274;28;20056;-69
2022/08/20 05:39:51;;;;;;;17.42;4.90;;;;;;;35.95;48.20;97910.88;5015449;28;20096;-69
2022/08/20 05:42:33;;;;;;;11.90;3.60;;;;;;;36.25;48.73;97913.22;5025565;28;20129;-70
2022/08/20 05:45:22;;;;;;;15.70;5.47;;;;;;;37.04;48.00;97918.34;4993700;28;20053;-69
2022/08/20 05:48:24;;;;;;;18.80;4.50;;;;;;;37.38;49.74;97915.72;5010012;28;20042;-69
2022/08/20 05:51:00;;;;;;;9.65;3.65;;;;;;;37.38;45.86;97920.50;5025692;28;20045;-71
2022/08/20 05:53:58;;;;;;;16.48;4.82;;;;;;;37.63;48.56;97913.91;5025353;28;20052;-71
2022/08/20 05:56:35;;;;;;;21.15;4.45;;;;;;;36.94;49.12;97919.25;5025438;28;20489;-70
2022/08/20 05:59:33;;;;;;;11.27;3.75;;;;;;;36.50;51.31;97913.09;5024660;28;20148;-71
2022/08/20 06:04:23;;;;;;;17.80;5.35;;;;;;;37.30;48.68;97911.38;5007780;28;20042;-71
2022/08/20 06:05:18;;;;;;;13.88;3.72;;;;;;;37.53;47.03;97921.97;5024703;28;20119;-70
2022/08/20 06:08:00;;;;;;;9.38;3.55;;;;;;;36.91;47.75;97914.47;5025178;28;20045;-70
2022/08/20 06:10:49;;;;;;;16.98;4.00;;;;;;;36.80;47.27;97920.94;5012619;28;20062;-70
2022/08/20 06:13:31;;;;;;;15.38;3.78;;;;;;;36.93;48.60;97915.63;5016019;28;20049;-70
2022/08/20 06:16:26;;;;;;;19.30;3.88;;;;;;;37.25;45.94;97911.03;4977055;28;20046;-70
2022/08/20 06:19:04;;;;;;;22.00;5.15;;;;;;;36.77;44.30;97912.56;5008912;28;20056;-69
2022/08/20 06:21:55;;;;;;;16.58;4.47;;;;;;;36.41;46.64;97910.72;5009357;28;20054;-72
2022/08/20 06:24:57;;;;;;;17.30;4.18;;;;;;;36.19;47.70;97906.44;5010326;28;20390;-70
2022/08/20 06:27:53;;;;;;;21.90;3.78;;;;;;;36.91;48.19;97898.47;5009940;28;20049;-70
2022/08/20 06:30:42;;;;;;;13.88;3.63;;;;;;;36.70;48.29;97905.00;5008931;28;20046;-70
2022/08/20 06:33:24;;;;;;;15.10;3.65;;;;;;;36.68;47.05;97907.41;5005074;28;20041;-70
2022/08/20 06:36:33;;;;;;;12.25;4.05;;;;;;;36.20;47.43;97903.22;5008168;28;20534;-72
2022/08/20 06:39:33;;;;;;;17.92;4.20;;;;;;;35.71;50.01;97901.38;5025042;28;20056;-72
2022/08/20 06:42:42;;;;;;;20.63;4.15;;;;;;;36.09;49.71;97893.28;5005600;28;20373;-71
2022/08/20 06:45:50;;;;;;;18.25;4.97;;;;;;;36.64;46.39;97890.63;5010895;28;20064;-71
2022/08/20 06:48:51;;;;;;;17.35;4.85;;;;;;;36.62;47.88;97887.44;5002481;28;20639;-70
2022/08/20 06:51:59;;;;;;;19.45;5.68;;;;;;;37.05;47.21;97891.97;5010148;28;20491;-71
2022/08/20 06:55:01;;;;;;;22.08;4.97;;;;;;;37.14;45.41;97888.72;5025761;28;20084;-73
2022/08/20 06:58:14;;;;;;;18.48;4.65;;;;;;;36.71;48.51;97878.66;5012195;28;20053;-70
2022/08/20 07:01:36;;;;;;;11.75;4.18;;;;;;;36.80;45.61;97872.56;5013487;28;20065;-71
2022/08/20 07:04:36;;;;;;;13.32;4.25;;;;;;;37.52;45.29;97883.97;5012938;28;20080;-71
2022/08/20 07:07:48;;;;;;;20.38;5.00;;;;;;;37.34;45.21;97880.59;5003846;28;20597;-70
2022/08/20 07:10:49;;;;;;;19.77;4.03;;;;;;;36.66;47.89;97881.06;4992537;28;20095;-71
2022/08/20 07:13:58;;;;;;;20.45;4.03;;;;;;;36.26;46.79;97882.03;4994790;28;20100;-70
2022/08/20 07:17:00;;;;;;;12.10;3.63;;;;;;;36.44;44.89;97881.19;5002999;28;20060;-71
2022/08/20 07:20:14;;;;;;;14.70;4.32;;;;;;;36.67;46.62;97871.47;5016585;28;20057;-71
2022/08/20 07:23:16;;;;;;;18.75;3.95;;;;;;;36.49;47.99;97877.94;5018185;28;20042;-69
2022/08/20 07:26:33;;;;;;;15.63;4.03;;;;;;;35.97;46.43;97870.19;5004968;28;20808;-70
2022/08/20 07:33:14;;;;;;;14.13;3.60;;;;;;;35.92;46.12;97875.38;4999010;28;20042;-70
2022/08/20 07:36:26;;;;;;;10.10;3.50;;;;;;;36.30;47.57;97879.22;4987644;28;20050;-70
2022/08/20 07:39:35;;;;;;;18.58;4.38;;;;;;;35.90;46.93;97870.19;5002465;28;20072;-70
2022/08/20 07:42:44;;;;;;;18.88;5.18;;;;;;;35.94;48.00;97868.19;4989936;28;20053;-71
2022/08/20 07:45:46;;;;;;;16.33;4.60;;;;;;;36.51;49.49;97866.34;4986906;28;20066;-71
2022/08/20 07:48:55;;;;;;;14.32;4.97;;;;;;;36.47;46.34;97869.16;4992467;28;20050;-72
2022/08/20 07:51:57;;;;;;;15.48;5.78;;;;;;;36.75;47.93;97865.44;4996620;28;20055;-71
2022/08/20 07:55:09;;;;;;;21.48;7.85;;;;;;;36.92;47.45;97862.91;4982211;28;20127;-71
2022/08/20 07:58:18;;;;;;;25.80;7.78;;;;;;;36.90;49.24;97856.91;4998323;28;20480;-71
2022/08/20 08:01:34;;;;;;;19.77;6.80;;;;;;;37.49;47.40;97859.63;4973416;28;20568;-70
2022/08/20 08:04:43;;;;;;;22.55;6.18;;;;;;;37.00;45.17;97856.06;4993366;28;20078;-70
2022/08/20 08:07:45;;;;;;;18.75;6.15;;;;;;;36.45;47.37;97852.03;4996183;28;20444;-72
2022/08/20 08:11:00;;;;;;;17.67;5.47;;;;;;;36.22;47.61;97844.16;4996149;28;20466;-70
2022/08/20 08:14:05;;;;;;;14.02;4.88;;;;;;;36.39;48.33;97839.69;4993190;28;20038;-70
2022/08/20 08:17:15;;;;;;;17.25;4.95;;;;;;;36.48;50.34;97840.03;4988186;28;20483;-72
2022/08/20 08:20:24;;;;;;;19.15;6.35;;;;;;;36.14;50.49;97845.38;4991853;28;20046;-72
2022/08/20 08:23:29;;;;;;;15.95;5.22;;;;;;;36.93;49.16;97842.13;4992338;28;20058;-71
2022/08/20 08:26:44;;;;;;;18.15;5.68;;;;;;;36.20;47.58;97838.19;4973011;28;20054;-70
2022/08/20 08:29:59;;;;;;;21.35;7.40;;;;;;;35.97;49.69;97831.09;5007229;28;20057;-72
2022/08/20 08:33:27;;;;;;;25.35;7.30;;;;;;;35.77;51.77;97829.97;5000243;28;20049;-70
2022/08/20 08:36:38;;;;;;;19.95;6.97;;;;;;;36.10;50.34;97830.66;5008599;28;20154;-73
2022/08/20 08:39:39;;;;;;;18.23;6.35;;;;;;;36.31;49.12;97819.38;5003668;28;20544;-72
2022/08/20 08:42:58;;;;;;;18.52;6.00;;;;;;;36.21;51.29;97811.84;5005036;28;20085;-67
2022/08/20 08:46:06;;;;;;;16.10;7.55;;;;;;;35.90;49.65;97816.34;5014680;28;20041;-71
2022/08/20 08:49:23;;;;;;;16.50;6.70;;;;;;;35.76;51.04;97814.44;5010195;28;20635;-70
2022/08/20 08:52:42;;;;;;;16.63;6.45;;;;;;;35.97;52.27;97819.91;5025345;28;20112;-70
2022/08/20 08:55:51;;;;;;;20.97;7.90;;;;;;;35.98;53.26;97799.19;5012159;28;20076;-71
2022/08/20 08:58:59;;;;;;;15.90;7.20;;;;;;;35.79;53.04;97786.50;5007833;28;20286;-69
2022/08/20 09:02:12;;;;;;;22.35;6.65;;;;;;;35.82;50.44;97782.88;5023483;28;20068;-70
2022/08/20 09:05:16;;;;;;;21.42;6.57;;;;;;;35.74;52.88;97783.34;5026653;28;20046;-70
2022/08/20 09:08:38;;;;;;;21.35;8.23;;;;;;;35.64;54.55;97785.72;5026759;28;20037;-69
2022/08/20 09:11:53;;;;;;;24.38;6.20;;;;;;;35.52;53.12;97765.84;5005551;28;20492;-70
2022/08/20 09:14:57;;;;;;;21.77;6.95;;;;;;;35.44;55.02;97765.06;5017879;28;20045;-70
2022/08/20 09:18:06;;;;;;;12.00;6.15;;;;;;;35.77;52.50;97766.56;5024971;28;20148;-70
2022/08/20 09:21:09;;;;;;;20.05;6.88;;;;;;;35.45;54.31;97766.66;5024594;28;20041;-70
2022/08/20 09:24:20;;;;;;;17.63;7.25;;;;;;;35.44;53.71;97753.91;5023588;28;20041;-70
2022/08/20 09:27:22;;;;;;;18.92;7.40;;;;;;;35.05;52.11;97763.94;5011655;28;20050;-70
2022/08/20 09:30:38;;;;;;;21.80;8.23;;;;;;;35.14;52.40;97757.97;5011803;28;20095;-69
2022/08/20 09:33:52;;;;;;;19.85;7.65;;;;;;;34.86;52.75;97754.00;5022173;28;20056;-70
2022/08/20 09:37:01;;;;;;;23.05;7.88;;;;;;;35.10;55.51;97751.56;5012686;28;20124;-70
2022/08/20 09:40:13;;;;;;;25.90;9.02;;;;;;;35.05;56.19;97749.19;5009926;28;20489;-69
2022/08/20 09:43:20;;;;;;;25.02;8.45;;;;;;;34.87;54.08;97752.00;4996534;28;20057;-68
2022/08/20 09:46:29;;;;;;;23.35;8.18;;;;;;;34.93;53.81;97746.81;5007629;28;20070;-69
2022/08/20 09:49:31;;;;;;;16.35;6.45;;;;;;;34.69;53.22;97749.25;5007103;28;20080;-70
2022/08/20 09:52:44;;;;;;;22.75;8.48;;;;;;;34.59;55.82;97744.44;5006928;28;20062;-70
2022/08/20 09:55:55;;;;;;;21.40;8.20;;;;;;;34.59;57.01;97744.44;4993139;28;20107;-71
2022/08/20 09:59:03;;;;;;;27.33;8.57;;;;;;;33.52;58.60;97735.41;4992181;28;20397;-71
2022/08/20 10:02:05;;;;;;;16.42;7.97;;;;;;;33.73;57.32;97728.34;5008337;28;20212;-70
2022/08/20 10:05:15;;;;;;;24.10;7.32;;;;;;;33.56;58.00;97724.28;5006317;28;20811;-71
2022/08/20 10:08:18;;;;;;;21.33;8.63;;;;;;;33.70;60.37;97724.34;4979412;28;20648;-71
2022/08/20 10:11:28;;;;;;;24.52;9.95;;;;;;;33.83;62.99;97707.31;5006200;28;20160;-71
2022/08/20 10:14:31;;;;;;;17.65;8.38;;;;;;;33.84;65.51;97706.09;5004480;28;20049;-71
2022/08/20 10:17:49;;;;;;;21.75;8.20;;;;;;;33.44;65.81;97705.16;5025288;28;20711;-70
2022/08/20 10:20:52;;;;;;;23.17;8.63;;;;;;;32.84;64.69;97707.19;5026444;28;20079;-71
2022/08/20 10:24:01;;;;;;;18.70;9.25;;;;;;;32.57;65.95;97717.72;4999132;28;20481;-70
2022/08/20 10:27:03;;;;;;;21.30;8.93;;;;;;;32.12;66.83;97716.91;5007072;28;20061;-70
2022/08/20 10:30:13;;;;;;;14.93;7.80;;;;;;;31.44;69.11;97721.66;5005521;28;20049;-70
2022/08/20 10:33:21;;;;;;;19.53;8.13;;;;;;;31.32;69.90;97720.72;5005765;28;20057;-70
2022/08/20 10:36:30;;;;;;;16.55;7.50;;;;;;;30.99;71.65;97724.19;5005898;28;20050;-71
2022/08/20 10:39:33;;;;;;;13.85;6.53;;;;;;;30.74;72.62;97723.81;5001821;28;20199;-72
2022/08/20 10:42:43;;;;;;;17.23;8.07;;;;;;;30.70;72.25;97723.75;5006087;28;20085;-71
2022/08/20 10:45:45;;;;;;;9.32;8.07;;;;;;;30.58;72.62;97727.53;5007404;28;20474;-70
2022/08/20 10:48:55;;;;;;;7.47;6.75;;;;;;;30.66;71.39;97725.66;5006784;28;20216;-71
2022/08/20 10:51:57;;;;;;;10.60;6.73;;;;;;;30.78;73.46;97717.16;5005740;28;20062;-71
2022/08/20 10:55:09;;;;;;;13.63;9.70;;;;;;;30.40;76.01;97709.81;5004088;28;20185;-72
2022/08/20 10:58:12;;;;;;;16.80;11.00;;;;;;;30.05;75.83;97708.00;5005698;28;20046;-70
2022/08/20 11:01:23;;;;;;;12.05;10.68;;;;;;;30.13;74.86;97692.31;5005720;28;20623;-71
2022/08/20 11:04:31;;;;;;;16.05;10.30;;;;;;;30.31;75.25;97692.66;5005216;28;20481;-71
2022/08/20 11:07:43;;;;;;;14.52;11.18;;;;;;;30.65;75.84;97682.53;5005362;28;20050;-71
2022/08/20 11:10:57;;;;;;;12.70;11.43;;;;;;;30.87;74.96;97683.63;5008478;28;20136;-70
2022/08/20 11:13:59;;;;;;;19.05;12.07;;;;;;;31.10;75.51;97680.81;5011145;28;20048;-72
2022/08/20 11:17:09;;;;;;;13.10;11.68;;;;;;;31.23;75.18;97678.63;5026690;28;20136;-72
2022/08/20 11:20:14;;;;;;;15.75;12.40;;;;;;;31.40;73.15;97677.25;5025155;28;20046;-71
2022/08/20 11:23:23;;;;;;;13.57;10.38;;;;;;;31.38;72.75;97680.38;5015171;28;20068;-70
2022/08/20 11:26:32;;;;;;;16.42;11.75;;;;;;;31.61;71.10;97679.50;4992605;28;20050;-71
2022/08/20 11:29:43;;;;;;;18.73;10.80;;;;;;;31.48;71.29;97684.50;5006317;28;20061;-70
2022/08/20 11:32:51;;;;;;;14.18;9.30;;;;;;;32.01;69.56;97672.38;4992861;28;20058;-70
2022/08/20 11:36:00;;;;;;;13.02;9.65;;;;;;;31.77;70.76;97687.59;5006620;28;20790;-71
2022/08/20 11:39:02;;;;;;;11.75;9.10;;;;;;;32.02;70.13;97681.50;5005732;28;20212;-70
2022/08/20 11:42:12;;;;;;;11.55;8.93;;;;;;;32.28;68.89;97680.56;5008161;28;20477;-70
2022/08/20 11:45:22;;;;;;;12.32;7.95;;;;;;;32.04;69.08;97676.38;5014161;28;20452;-70
2022/08/20 11:48:24;;;;;;;13.27;9.35;;;;;;;32.56;68.00;97669.72;5011713;28;20045;-70
2022/08/20 11:51:36;;;;;;;13.52;7.82;;;;;;;32.83;67.31;97661.16;5023311;28;20044;-71
2022/08/20 11:54:49;;;;;;;13.07;8.35;;;;;;;32.39;66.99;97670.34;5025128;28;20042;-70
2022/08/20 11:57:58;;;;;;;11.80;8.90;;;;;;;32.79;67.35;97665.91;5024980;28;20116;-71
2022/08/20 12:01:00;;;;;;;14.45;10.80;;;;;;;32.31;67.55;97665.91;5025155;28;20045;-70
2022/08/20 12:04:09;;;;;;;17.95;9.50;;;;;;;33.23;66.56;97656.63;5024777;28;20144;-70
2022/08/20 12:07:23;;;;;;;18.35;11.10;;;;;;;33.24;68.04;97658.19;5004608;28;20538;-71
2022/08/20 12:10:33;;;;;;;19.52;12.50;;;;;;;32.94;68.92;97659.25;5018921;28;20397;-71
2022/08/20 12:13:42;;;;;;;21.02;12.95;;;;;;;32.96;68.29;97664.38;5021002;28;20115;-71
2022/08/20 12:16:48;;;;;;;17.25;12.65;;;;;;;32.89;69.41;97670.72;5000265;28;20085;-70
2022/08/20 12:20:01;;;;;;;19.98;13.35;;;;;;;32.87;69.48;97664.75;5004255;28;20050;-71
2022/08/20 12:23:09;;;;;;;23.55;13.82;;;;;;;32.83;69.17;97665.91;5005832;28;20053;-71
2022/08/20 12:26:18;;;;;;;20.08;14.63;;;;;;;32.87;68.97;97661.19;5004405;28;20125;-70
2022/08/20 12:29:27;;;;;;;22.30;14.05;;;;;;;32.90;69.21;97663.16;4992210;28;20801;-70
2022/08/20 12:32:31;;;;;;;29.08;16.25;;;;;;;32.67;67.71;97657.88;5004997;28;20561;-71
2022/08/20 12:35:46;;;;;;;25.63;17.52;;;;;;;33.00;67.83;97659.66;4991824;28;20050;-70
2022/08/20 12:38:42;;;;;;;30.10;18.02;;;;;;;32.94;66.34;97663.97;5004822;28;20064;-70
2022/08/20 12:41:50;;;;;;;29.00;17.20;;;;;;;32.90;66.14;97668.72;5003288;28;20140;-71
2022/08/20 12:44:53;;;;;;;21.42;17.08;;;;;;;33.05;68.26;97666.81;5003530;28;20050;-70
2022/08/20 12:48:12;;;;;;;28.60;18.52;;;;;;;32.94;66.18;97673.13;5004222;28;20046;-70
2022/08/20 12:51:14;;;;;;;33.65;24.88;;;;;;;33.14;67.19;97670.09;5002380;28;20060;-70
2022/08/20 12:54:24;;;;;;;36.25;25.40;;;;;;;33.01;68.42;97660.47;4983306;28;20062;-70
2022/08/20 12:57:40;;;;;;;54.78;33.00;;;;;;;32.76;65.40;97673.00;4984734;28;20046;-70
2022/08/20 13:00:49;;;;;;;45.05;33.33;;;;;;;33.03;66.12;97666.41;4965913;28;20049;-70
2022/08/20 13:03:52;;;;;;;51.90;36.35;;;;;;;32.93;67.44;97674.31;4985614;28;20054;-70
2022/08/20 13:07:03;;;;;;;47.08;35.95;;;;;;;32.69;67.22;97684.06;4984216;28;20129;-70
2022/08/20 13:10:10;;;;;;;52.13;36.83;;;;;;;32.70;67.69;97687.66;4995215;28;20050;-71
2022/08/20 13:13:20;;;;;;;51.78;35.75;;;;;;;32.66;67.46;97689.63;4973744;28;20050;-71
2022/08/20 13:16:22;;;;;;;48.88;36.15;;;;;;;32.52;67.91;97693.03;4983752;28;20089;-71
2022/08/20 13:19:33;;;;;;;54.65;39.22;;;;;;;32.61;68.28;97684.41;4996103;28;20054;-72
2022/08/20 13:22:42;;;;;;;62.60;37.55;;;;;;;32.57;68.54;97690.75;4999532;28;20050;-71
2022/08/20 13:25:46;;;;;;;58.92;36.35;;;;;;;32.58;69.13;97691.56;4984684;28;20125;-71
2022/08/20 13:28:54;;;;;;;56.47;36.72;;;;;;;32.61;67.11;97698.31;4983420;28;20054;-72
2022/08/20 13:32:05;;;;;;;59.00;37.42;;;;;;;32.53;67.19;97698.22;4985400;28;20525;-69
2022/08/20 13:35:20;;;;;;;52.67;31.95;;;;;;;32.39;65.15;97693.34;5005149;28;20092;-71
2022/08/20 13:38:30;;;;;;;50.83;30.25;;;;;;;32.18;65.65;97696.75;5003350;28;20053;-69
2022/08/20 13:41:40;;;;;;;52.67;30.58;;;;;;;32.07;66.69;97698.63;5003652;28;20144;-69
2022/08/20 13:44:43;;;;;;;55.25;28.05;;;;;;;32.08;67.15;97708.56;5004751;28;20516;-69
2022/08/20 13:47:51;;;;;;;49.40;26.00;;;;;;;32.03;67.57;97720.00;5015571;28;20045;-72
2022/08/20 13:50:53;;;;;;;36.70;21.73;;;;;;;32.20;65.80;97724.13;5009825;28;20045;-70
2022/08/20 13:54:06;;;;;;;40.63;23.08;;;;;;;32.38;67.23;97730.63;5024218;28;20847;-71